createdAt,value
2022-07-26T00:01:02.292Z,54.18
2022-07-26T00:03:30.219Z,54.39
2022-07-26T00:05:58.376Z,54.46
2022-07-26T00:08:26.809Z,55.11
2022-07-26T00:10:54.664Z,55.12
2022-07-26T00:13:23.942Z,55.47
2022-07-26T00:15:55.895Z,56.67
2022-07-26T00:18:23.848Z,56.20
2022-07-26T00:20:51.920Z,56.74
2022-07-26T00:23:20.373Z,58.42
2022-07-26T00:25:48.175Z,58.53
2022-07-26T00:28:16.073Z,58.75
2022-07-26T00:30:46.512Z,59.74
2022-07-26T00:33:15.545Z,60.97
2022-07-26T00:35:44.165Z,60.12
2022-07-26T00:38:12.105Z,60.90
2022-07-26T00:40:39.872Z,61.47
2022-07-26T00:43:07.689Z,61.88
2022-07-26T00:45:35.470Z,61.90
2022-07-26T00:48:05.261Z,62.17
2022-07-26T00:50:33.220Z,62.75
2022-07-26T00:53:01.659Z,63.01
2022-07-26T00:55:30.124Z,63.38
2022-07-26T00:57:58.064Z,63.67
2022-07-26T01:00:27.936Z,63.87
2022-07-26T01:02:56.540Z,64.11
2022-07-26T01:05:26.136Z,64.75
2022-07-26T01:07:54.682Z,64.28
2022-07-26T01:10:22.477Z,63.96
2022-07-26T01:12:50.429Z,63.95
2022-07-26T01:15:18.792Z,63.82
2022-07-26T01:17:47.399Z,63.71
2022-07-26T01:20:15.704Z,63.36
2022-07-26T01:22:45.058Z,63.50
2022-07-26T01:25:12.942Z,63.42
2022-07-26T01:27:40.970Z,63.36
2022-07-26T01:30:11.504Z,63.89
2022-07-26T01:32:40.675Z,64.04
2022-07-26T01:35:09.950Z,63.93
2022-07-26T01:37:38.022Z,63.88
2022-07-26T01:40:08.757Z,63.50
2022-07-26T01:42:40.723Z,63.93
2022-07-26T01:45:09.878Z,63.75
2022-07-26T01:47:37.945Z,64.02
2022-07-26T01:50:07.953Z,63.96
2022-07-26T01:52:35.951Z,64.21
2022-07-26T01:55:04.279Z,63.70
2022-07-26T01:57:33.458Z,63.74
2022-07-26T02:00:01.497Z,63.63
2022-07-26T02:02:29.725Z,64.07
2022-07-26T02:05:01.531Z,63.98
2022-07-26T02:07:31.395Z,63.82
2022-07-26T02:10:01.009Z,63.34
2022-07-26T02:12:29.849Z,63.28
2022-07-26T02:15:00.171Z,63.38
2022-07-26T02:17:28.023Z,63.41
2022-07-26T02:19:56.022Z,63.16
2022-07-26T02:22:23.985Z,63.11
2022-07-26T02:24:52.005Z,61.90
2022-07-26T02:27:20.271Z,62.60
2022-07-26T02:29:48.597Z,62.43
2022-07-26T02:32:19.150Z,62.56
2022-07-26T02:34:47.621Z,62.98
2022-07-26T02:37:15.371Z,63.14
2022-07-26T02:39:43.246Z,63.03
2022-07-26T02:42:10.995Z,62.98
2022-07-26T02:44:38.902Z,63.12
2022-07-26T02:47:06.819Z,62.63
2022-07-26T02:49:35.929Z,62.48
2022-07-26T02:52:06.825Z,62.21
2022-07-26T02:54:34.685Z,62.31
2022-07-26T02:57:02.899Z,62.28
2022-07-26T02:59:30.912Z,61.85
2022-07-26T03:01:58.926Z,62.08
2022-07-26T03:04:27.083Z,61.54
2022-07-26T03:06:59.399Z,61.15
2022-07-26T03:09:27.265Z,60.22
2022-07-26T03:11:55.019Z,59.96
2022-07-26T03:14:22.979Z,59.08
2022-07-26T03:16:50.842Z,58.71
2022-07-26T03:19:18.628Z,58.89
2022-07-26T03:21:46.491Z,59.03
2022-07-26T03:24:15.676Z,58.36
2022-07-26T03:26:43.397Z,58.22
2022-07-26T03:29:11.313Z,58.73
2022-07-26T03:31:39.995Z,58.58
2022-07-26T03:34:08.885Z,56.89
2022-07-26T03:36:36.992Z,56.42
2022-07-26T03:39:04.934Z,56.36
2022-07-26T03:41:34.010Z,56.56
2022-07-26T03:44:02.093Z,56.09
2022-07-26T03:46:30.063Z,56.58
2022-07-26T03:48:58.613Z,55.46
2022-07-26T03:51:26.571Z,55.83
2022-07-26T03:53:54.618Z,55.58
2022-07-26T03:56:32.147Z,55.46
2022-07-26T03:59:04.000Z,56.05
2022-07-26T04:01:32.869Z,55.43
2022-07-26T04:04:00.664Z,56.09
2022-07-26T04:06:29.048Z,55.28
2022-07-26T04:08:56.958Z,55.11
2022-07-26T04:11:27.799Z,54.06
2022-07-26T04:13:57.562Z,54.53
2022-07-26T04:16:27.647Z,53.86
2022-07-26T04:18:55.763Z,53.05
2022-07-26T04:21:23.716Z,53.80
2022-07-26T04:23:52.095Z,53.36
2022-07-26T04:26:21.173Z,51.77
2022-07-26T04:28:49.077Z,52.24
2022-07-26T04:31:17.391Z,51.95
2022-07-26T04:33:48.189Z,52.18
2022-07-26T04:36:16.682Z,52.17
2022-07-26T04:38:44.799Z,52.28
2022-07-26T04:41:12.734Z,52.79
2022-07-26T04:43:40.503Z,52.47
2022-07-26T04:46:08.533Z,53.39
2022-07-26T04:48:38.152Z,53.16
2022-07-26T04:51:07.634Z,52.70
2022-07-26T04:53:35.427Z,53.63
2022-07-26T04:56:03.267Z,52.73
2022-07-26T04:58:31.106Z,52.28
2022-07-26T05:01:10.150Z,52.07
2022-07-26T05:03:38.772Z,51.75
2022-07-26T05:06:08.252Z,52.19
2022-07-26T05:08:36.119Z,52.06
2022-07-26T05:11:04.600Z,51.74
2022-07-26T05:13:32.444Z,51.56
2022-07-26T05:16:00.474Z,51.25
2022-07-26T05:18:31.838Z,50.80
2022-07-26T05:21:15.419Z,50.08
2022-07-26T05:23:43.261Z,50.38
2022-07-26T05:26:12.308Z,51.54
2022-07-26T05:28:40.512Z,51.13
2022-07-26T05:31:08.994Z,50.78
2022-07-26T05:33:38.425Z,50.78
2022-07-26T05:36:07.318Z,50.73
2022-07-26T05:38:36.553Z,50.13
2022-07-26T05:41:04.555Z,50.42
2022-07-26T05:43:40.691Z,50.62
2022-07-26T05:46:10.327Z,50.67
2022-07-26T05:48:38.384Z,51.57
2022-07-26T05:51:06.333Z,51.76
2022-07-26T05:53:34.474Z,51.89
2022-07-26T05:56:03.694Z,51.34
2022-07-26T05:58:31.623Z,51.17
2022-07-26T06:00:59.568Z,50.59
2022-07-26T06:03:27.337Z,49.76
2022-07-26T06:05:57.842Z,50.05
2022-07-26T06:08:26.779Z,50.07
2022-07-26T06:10:55.377Z,49.76
2022-07-26T06:13:24.708Z,49.48
2022-07-26T06:15:53.539Z,49.50
2022-07-26T06:18:21.359Z,50.01
2022-07-26T06:20:50.048Z,49.45
2022-07-26T06:23:17.937Z,50.04
2022-07-26T06:26:01.701Z,49.53
2022-07-26T06:28:30.954Z,48.93
2022-07-26T06:30:58.843Z,49.55
2022-07-26T06:33:27.510Z,49.41
2022-07-26T06:35:56.131Z,48.43
2022-07-26T06:38:23.937Z,50.00
2022-07-26T06:40:51.741Z,50.33
2022-07-26T06:43:19.512Z,49.48
2022-07-26T06:45:49.460Z,49.29
2022-07-26T06:48:17.294Z,50.47
2022-07-26T06:50:45.945Z,50.36
2022-07-26T06:53:13.736Z,49.71
2022-07-26T06:55:42.789Z,49.76
2022-07-26T06:58:10.862Z,50.27
2022-07-26T07:00:38.802Z,51.07
2022-07-26T07:03:08.317Z,51.26
2022-07-26T07:05:36.238Z,50.19
2022-07-26T07:08:04.621Z,48.83
2022-07-26T07:10:35.017Z,48.22
2022-07-26T07:13:02.768Z,48.58
2022-07-26T07:15:30.573Z,48.70
2022-07-26T07:17:58.393Z,46.63
2022-07-26T07:20:28.405Z,45.92
2022-07-26T07:22:56.269Z,47.96
2022-07-26T07:25:30.282Z,48.09
2022-07-26T07:27:58.558Z,47.86
2022-07-26T07:30:28.015Z,48.11
2022-07-26T07:32:57.323Z,47.63
2022-07-26T07:35:31.643Z,47.07
2022-07-26T07:38:00.421Z,46.46
2022-07-26T07:40:30.142Z,45.94
2022-07-26T07:42:58.769Z,45.02
2022-07-26T07:45:26.840Z,46.37
2022-07-26T07:47:54.812Z,46.36
2022-07-26T07:50:22.638Z,48.87
2022-07-26T07:52:57.935Z,48.38
2022-07-26T07:55:46.185Z,47.70
2022-07-26T07:58:15.842Z,48.32
2022-07-26T08:00:45.305Z,46.92
2022-07-26T08:03:17.867Z,45.96
2022-07-26T08:05:47.070Z,45.84
2022-07-26T08:08:22.674Z,46.89
2022-07-26T08:10:53.269Z,46.56
2022-07-26T08:13:22.000Z,46.07
2022-07-26T08:15:50.709Z,46.15
2022-07-26T08:18:18.932Z,47.17
2022-07-26T08:20:50.719Z,44.18
2022-07-26T08:23:20.245Z,45.02
2022-07-26T08:25:56.617Z,44.80
2022-07-26T08:31:20.208Z,43.65
2022-07-26T08:33:52.026Z,41.27
2022-07-26T08:36:19.929Z,40.72
2022-07-26T08:38:49.123Z,39.11
2022-07-26T08:41:18.365Z,38.28
2022-07-26T08:43:53.156Z,37.15
2022-07-26T08:46:28.067Z,37.11
2022-07-26T08:48:57.227Z,34.87
2022-07-26T08:51:26.955Z,35.35
2022-07-26T08:54:04.921Z,36.29
2022-07-26T08:56:36.004Z,37.68
2022-07-26T08:59:19.636Z,38.87
2022-07-26T09:01:53.653Z,36.25
2022-07-26T09:04:31.840Z,33.52
2022-07-26T09:07:04.504Z,33.90
2022-07-26T09:09:35.053Z,36.27
2022-07-26T09:12:15.684Z,36.16
2022-07-26T09:14:46.601Z,36.16
2022-07-26T09:17:15.612Z,37.01
2022-07-26T09:19:44.274Z,38.48
2022-07-26T09:22:14.294Z,38.57
2022-07-26T09:24:44.800Z,39.06
2022-07-26T09:27:14.217Z,38.06
2022-07-26T09:29:46.580Z,34.11
2022-07-26T09:32:18.476Z,32.40
2022-07-26T09:34:52.934Z,32.87
2022-07-26T09:37:35.130Z,32.34
2022-07-26T09:40:07.938Z,31.70
2022-07-26T09:42:36.001Z,31.53
2022-07-26T09:45:15.758Z,30.31
2022-07-26T09:47:43.783Z,29.71
2022-07-26T09:50:13.946Z,32.26
2022-07-26T09:52:42.203Z,30.40
2022-07-26T09:55:13.291Z,31.21
2022-07-26T09:57:41.292Z,31.84
2022-07-26T10:00:10.755Z,33.09
2022-07-26T10:02:38.691Z,33.39
2022-07-26T10:05:07.543Z,34.94
2022-07-26T10:07:35.844Z,36.20
2022-07-26T10:10:07.126Z,35.98
2022-07-26T10:12:37.227Z,36.23
2022-07-26T10:15:05.719Z,35.59
2022-07-26T10:17:42.465Z,35.84
2022-07-26T10:20:17.461Z,37.24
2022-07-26T10:22:52.440Z,38.75
2022-07-26T10:25:48.407Z,38.94
2022-07-26T10:28:26.840Z,38.36
2022-07-26T10:31:26.159Z,36.99
2022-07-26T10:33:57.073Z,34.82
2022-07-26T10:36:31.335Z,31.59
2022-07-26T10:39:05.895Z,32.51
2022-07-26T10:41:36.728Z,29.91
2022-07-26T10:44:31.359Z,29.24
2022-07-26T10:47:15.847Z,29.95
2022-07-26T10:49:53.588Z,30.37
2022-07-26T10:52:27.038Z,31.68
2022-07-26T10:55:17.014Z,32.59
2022-07-26T10:57:49.501Z,32.88
2022-07-26T11:00:22.288Z,33.46
2022-07-26T11:02:55.169Z,34.33
2022-07-26T11:05:28.893Z,34.66
2022-07-26T11:08:01.492Z,34.45
2022-07-26T11:10:32.744Z,34.17
2022-07-26T11:13:10.240Z,35.05
2022-07-26T11:15:41.730Z,31.69
2022-07-26T11:18:15.649Z,30.94
2022-07-26T11:20:46.130Z,29.40
2022-07-26T11:23:24.603Z,30.43
2022-07-26T11:26:18.057Z,30.82
2022-07-26T11:28:51.166Z,32.19
2022-07-26T11:31:23.495Z,31.67
2022-07-26T11:34:18.972Z,30.34
2022-07-26T11:36:48.580Z,33.14
2022-07-26T11:39:22.644Z,34.97
2022-07-26T11:41:52.198Z,35.66
2022-07-26T11:44:21.862Z,35.46
2022-07-26T11:46:52.214Z,36.26
2022-07-26T11:49:25.119Z,36.23
2022-07-26T11:52:00.611Z,35.72
2022-07-26T11:54:30.102Z,32.53
2022-07-26T11:56:59.816Z,31.05
2022-07-26T11:59:29.442Z,28.04
2022-07-26T12:02:00.788Z,28.22
2022-07-26T12:04:30.919Z,30.30
2022-07-26T12:07:01.000Z,30.54
2022-07-26T12:09:31.005Z,30.71
2022-07-26T12:11:59.249Z,29.91
2022-07-26T12:14:28.038Z,30.72
2022-07-26T12:16:56.067Z,29.80
2022-07-26T12:19:28.856Z,28.73
2022-07-26T12:21:59.687Z,28.21
2022-07-26T12:24:42.746Z,27.59
2022-07-26T12:27:12.932Z,27.13
2022-07-26T12:29:43.088Z,26.37
2022-07-26T12:32:15.077Z,27.52
2022-07-26T12:34:57.592Z,28.98
2022-07-26T12:37:34.903Z,30.15
2022-07-26T12:40:11.872Z,31.63
2022-07-26T12:42:41.597Z,31.71
2022-07-26T12:45:11.407Z,31.16
2022-07-26T12:47:41.908Z,32.22
2022-07-26T12:50:13.247Z,30.26
2022-07-26T12:52:42.073Z,27.45
2022-07-26T12:55:14.588Z,27.45
2022-07-26T12:57:47.725Z,27.33
2022-07-26T13:00:18.317Z,26.92
2022-07-26T13:02:46.792Z,26.66
2022-07-26T13:05:16.675Z,26.81
2022-07-26T13:07:44.669Z,27.37
2022-07-26T13:13:00.933Z,27.94
2022-07-26T13:15:37.293Z,28.40
2022-07-26T13:18:08.035Z,28.27
2022-07-26T13:20:38.549Z,29.24
2022-07-26T13:23:09.733Z,28.55
2022-07-26T13:25:40.382Z,29.13
2022-07-26T13:28:09.509Z,30.98
2022-07-26T13:30:38.637Z,29.43
2022-07-26T13:33:08.052Z,28.89
2022-07-26T13:35:39.376Z,30.02
2022-07-26T13:38:09.437Z,28.59
2022-07-26T13:40:37.395Z,29.00
2022-07-26T13:43:06.209Z,28.81
2022-07-26T13:45:34.165Z,29.20
2022-07-26T13:48:02.159Z,27.96
2022-07-26T13:50:30.390Z,29.38
2022-07-26T13:52:59.766Z,27.42
2022-07-26T13:55:27.631Z,28.75
2022-07-26T13:57:57.587Z,29.50
2022-07-26T14:00:26.946Z,29.65
2022-07-26T14:02:55.337Z,28.07
2022-07-26T14:05:23.475Z,26.72
2022-07-26T14:07:51.350Z,27.66
2022-07-26T14:10:21.303Z,28.48
2022-07-26T14:12:49.233Z,29.61
2022-07-26T14:15:22.052Z,28.27
2022-07-26T14:17:51.115Z,27.78
2022-07-26T14:20:18.943Z,28.15
2022-07-26T14:22:48.345Z,26.58
2022-07-26T14:25:16.340Z,29.40
2022-07-26T14:27:45.529Z,31.26
2022-07-26T14:30:14.465Z,32.57
2022-07-26T14:32:43.332Z,32.45
2022-07-26T14:35:12.001Z,32.05
2022-07-26T14:37:42.729Z,32.68
2022-07-26T14:40:14.472Z,33.41
2022-07-26T14:42:43.316Z,32.36
2022-07-26T14:45:13.592Z,31.82
2022-07-26T14:47:41.516Z,32.96
2022-07-26T14:50:10.993Z,31.44
2022-07-26T14:52:40.158Z,31.93
2022-07-26T14:55:09.326Z,32.75
2022-07-26T14:57:39.654Z,32.15
2022-07-26T15:00:10.250Z,32.04
2022-07-26T15:02:41.489Z,31.38
2022-07-26T15:05:10.657Z,31.61
2022-07-26T15:07:39.079Z,30.48
2022-07-26T15:10:08.728Z,29.58
2022-07-26T15:12:36.688Z,30.34
2022-07-26T15:15:05.343Z,31.35
2022-07-26T15:17:33.179Z,31.87
2022-07-26T15:20:02.730Z,31.76
2022-07-26T15:22:30.639Z,30.29
2022-07-26T15:24:58.537Z,28.90
2022-07-26T15:27:26.397Z,28.46
2022-07-26T15:29:57.148Z,26.78
2022-07-26T15:32:29.334Z,28.33
2022-07-26T15:34:57.901Z,28.51
2022-07-26T15:37:27.206Z,27.59
2022-07-26T15:39:55.061Z,27.32
2022-07-26T15:42:23.247Z,27.55
2022-07-26T15:44:51.241Z,29.67
2022-07-26T15:47:52.545Z,30.00
2022-07-26T15:50:09.280Z,28.49
2022-07-26T15:52:40.260Z,28.94
2022-07-26T15:55:09.751Z,27.64
2022-07-26T15:57:37.563Z,27.31
2022-07-26T16:00:10.917Z,28.06
2022-07-26T16:02:40.730Z,28.67
2022-07-26T16:05:10.121Z,28.53
2022-07-26T16:07:41.279Z,28.39
2022-07-26T16:10:10.825Z,28.41
2022-07-26T16:12:39.087Z,28.63
2022-07-26T16:15:08.648Z,28.15
2022-07-26T16:17:36.516Z,29.59
2022-07-26T16:20:06.389Z,29.70
2022-07-26T16:22:34.432Z,29.33
2022-07-26T16:25:05.922Z,28.93
2022-07-26T16:27:33.803Z,29.24
2022-07-26T16:30:01.580Z,31.17
2022-07-26T16:32:30.465Z,31.09
2022-07-26T16:34:58.812Z,30.59
2022-07-26T16:37:26.732Z,30.07
2022-07-26T16:39:56.140Z,32.12
2022-07-26T16:42:25.441Z,33.88
2022-07-26T16:44:53.344Z,34.96
2022-07-26T16:47:21.184Z,35.23
2022-07-26T16:49:48.972Z,38.08
2022-07-26T16:52:16.996Z,39.69
2022-07-26T16:54:45.620Z,40.90
2022-07-26T16:57:13.593Z,41.52
2022-07-26T16:59:42.756Z,41.99
2022-07-26T17:02:10.657Z,42.28
2022-07-26T17:04:39.288Z,43.49
2022-07-26T17:07:24.687Z,43.87
2022-07-26T17:09:54.136Z,43.77
2022-07-26T17:12:22.111Z,44.18
2022-07-26T17:14:51.947Z,44.49
2022-07-26T17:17:19.803Z,43.10
2022-07-26T17:19:47.746Z,43.93
2022-07-26T17:22:15.958Z,45.05
2022-07-26T17:24:43.948Z,44.50
2022-07-26T17:27:11.747Z,44.75
2022-07-26T17:29:39.615Z,45.18
2022-07-26T17:32:10.524Z,45.97
2022-07-26T17:34:40.040Z,45.77
2022-07-26T17:37:09.964Z,45.96
2022-07-26T17:39:53.411Z,45.64
2022-07-26T17:42:22.558Z,45.44
2022-07-26T17:44:50.690Z,46.57
2022-07-26T17:47:29.161Z,47.15
2022-07-26T17:52:49.520Z,47.62
2022-07-26T17:55:18.662Z,47.64
2022-07-26T17:57:47.809Z,47.65
2022-07-26T18:00:16.755Z,47.92
2022-07-26T18:02:46.005Z,48.05
2022-07-26T18:05:14.024Z,48.30
2022-07-26T18:07:42.418Z,48.30
2022-07-26T18:10:11.684Z,48.79
2022-07-26T18:12:39.663Z,48.61
2022-07-26T18:15:08.889Z,49.19
2022-07-26T18:17:37.340Z,49.04
2022-07-26T18:20:08.744Z,49.26
2022-07-26T18:22:36.589Z,49.28
2022-07-26T18:25:05.818Z,49.69
2022-07-26T18:27:34.385Z,50.15
2022-07-26T18:30:02.159Z,50.20
2022-07-26T18:32:30.646Z,50.99
2022-07-26T18:34:59.256Z,51.37
2022-07-26T18:37:28.588Z,52.00
2022-07-26T18:39:58.097Z,52.27
2022-07-26T18:42:26.417Z,52.46
2022-07-26T18:44:54.238Z,52.37
2022-07-26T18:47:22.710Z,52.75
2022-07-26T18:49:50.816Z,52.74
2022-07-26T18:52:28.806Z,53.40
2022-07-26T18:55:06.693Z,53.54
2022-07-26T18:57:35.312Z,53.03
2022-07-26T19:00:03.937Z,53.01
2022-07-26T19:02:31.863Z,52.81
2022-07-26T19:04:59.618Z,53.10
2022-07-26T19:07:27.542Z,53.22
2022-07-26T19:09:58.594Z,53.27
2022-07-26T19:12:29.197Z,52.86
2022-07-26T19:14:59.859Z,53.21
2022-07-26T19:17:28.124Z,53.62
2022-07-26T19:19:58.263Z,53.77
2022-07-26T19:22:26.637Z,53.92
2022-07-26T19:24:54.533Z,54.36
2022-07-26T19:27:22.386Z,54.94
2022-07-26T19:29:51.653Z,55.15
2022-07-26T19:32:19.794Z,55.22
2022-07-26T19:34:48.448Z,55.02
2022-07-26T19:37:21.088Z,55.18
2022-07-26T19:39:49.489Z,55.00
2022-07-26T19:42:17.795Z,55.12
2022-07-26T19:44:46.619Z,55.55
2022-07-26T19:47:15.748Z,55.67
2022-07-26T19:49:43.538Z,55.63
2022-07-26T19:52:11.999Z,55.68
2022-07-26T19:54:40.570Z,55.22
2022-07-26T19:57:08.442Z,55.26
2022-07-26T19:59:36.291Z,55.92
2022-07-26T20:02:05.604Z,56.04
2022-07-26T20:04:34.846Z,56.47
2022-07-26T20:07:02.830Z,56.31
2022-07-26T20:09:30.747Z,56.31
2022-07-26T20:11:59.335Z,55.76
2022-07-26T20:14:27.279Z,55.54
2022-07-26T20:16:56.928Z,55.73
2022-07-26T20:19:26.766Z,55.62
2022-07-26T20:21:56.325Z,55.92
2022-07-26T20:24:24.225Z,55.77
2022-07-26T20:26:51.990Z,55.87
2022-07-26T20:29:20.160Z,56.42
2022-07-26T20:31:48.951Z,57.27
2022-07-26T20:34:17.445Z,58.15
2022-07-26T20:36:45.260Z,58.03
2022-07-26T20:39:15.074Z,58.66
2022-07-26T20:41:43.134Z,58.85
2022-07-26T20:44:12.341Z,58.53
2022-07-26T20:46:41.757Z,58.47
2022-07-26T20:49:10.649Z,58.08
2022-07-26T20:51:39.252Z,57.59
2022-07-26T20:54:08.603Z,57.84
2022-07-26T20:56:37.908Z,57.40
2022-07-26T20:59:06.027Z,57.35
2022-07-26T21:01:34.622Z,57.08
2022-07-26T21:04:02.887Z,57.04
2022-07-26T21:06:33.235Z,57.39
2022-07-26T21:09:09.084Z,57.58
2022-07-26T21:11:40.927Z,57.78
2022-07-26T21:14:08.685Z,57.47
2022-07-26T21:16:36.734Z,57.85
2022-07-26T21:19:05.921Z,58.10
2022-07-26T21:21:36.913Z,56.91
2022-07-26T21:24:05.860Z,56.84
2022-07-26T21:26:33.654Z,57.05
2022-07-26T21:29:02.909Z,57.22
2022-07-26T21:31:30.931Z,56.66
2022-07-26T21:34:00.545Z,56.75
2022-07-26T21:36:30.104Z,56.75
2022-07-26T21:38:59.187Z,56.85
2022-07-26T21:41:26.927Z,56.90
2022-07-26T21:43:54.755Z,56.53
2022-07-26T21:46:24.121Z,56.60
2022-07-26T21:48:52.144Z,56.72
2022-07-26T21:51:20.106Z,57.17
2022-07-26T21:53:48.391Z,57.77
2022-07-26T21:56:16.982Z,58.45
2022-07-26T21:58:44.813Z,58.60
2022-07-26T22:01:15.094Z,58.74
2022-07-26T22:03:44.337Z,58.33
2022-07-26T22:06:12.489Z,59.14
2022-07-26T22:08:40.979Z,59.40
2022-07-26T22:11:08.865Z,59.66
2022-07-26T22:13:37.132Z,60.36
2022-07-26T22:16:05.979Z,60.47
2022-07-26T22:18:33.950Z,61.06
2022-07-26T22:21:03.078Z,60.93
2022-07-26T22:23:31.012Z,60.43
2022-07-26T22:25:59.812Z,60.57
2022-07-26T22:28:27.573Z,60.95
2022-07-26T22:30:55.616Z,60.86
2022-07-26T22:33:27.333Z,60.46
2022-07-26T22:35:56.067Z,60.06
2022-07-26T22:38:25.365Z,60.61
2022-07-26T22:40:53.608Z,60.64
2022-07-26T22:43:21.510Z,60.72
2022-07-26T22:45:49.365Z,61.21
2022-07-26T22:48:17.253Z,60.87
2022-07-26T22:50:45.319Z,61.06
2022-07-26T22:53:13.071Z,60.88
2022-07-26T22:55:42.204Z,61.17
2022-07-26T22:58:10.521Z,61.27
2022-07-26T23:00:38.400Z,61.35
2022-07-26T23:03:12.550Z,61.44
2022-07-26T23:05:52.333Z,61.32
2022-07-26T23:11:09.801Z,61.40
2022-07-26T23:13:37.582Z,61.49
2022-07-26T23:16:06.362Z,61.60
2022-07-26T23:18:35.130Z,62.11
2022-07-26T23:21:04.052Z,61.92
2022-07-26T23:23:32.163Z,61.96
2022-07-26T23:26:00.824Z,61.94
2022-07-26T23:28:37.269Z,62.07
2022-07-26T23:31:10.761Z,61.65
2022-07-26T23:33:52.292Z,61.37
2022-07-26T23:36:26.905Z,61.47
2022-07-26T23:38:55.355Z,61.25
2022-07-26T23:41:23.234Z,62.07
2022-07-26T23:43:52.778Z,62.37
2022-07-26T23:46:20.623Z,62.15
2022-07-26T23:48:48.770Z,61.88
2022-07-26T23:51:16.731Z,62.30
2022-07-26T23:53:44.771Z,62.00
2022-07-26T23:56:12.599Z,62.51
2022-07-26T23:58:40.483Z,62.04
